Time;durP1;ratioP1;P1;durP2;ratioP2;P2;SDS_P1;SDS_P2;PMS_P1;PMS_P2;Temp;Humidity;BMP_temperature;BMP_pressure;BME280_temperature;BME280_humidity;BME280_pressure;Samples;Min_cycle;Max_cycle;Signal;HPM_P1;HPM_P2
2024/01/19 00:00:03;;;;;;;1.67;1.45;;;17.60;38.80;;;;;;5151695;27;45388;-71
2024/01/19 00:02:30;;;;;;;1.88;1.40;;;17.60;38.80;;;;;;5151414;27;45317;-69
2024/01/19 00:04:58;;;;;;;3.92;1.98;;;17.60;38.80;;;;;;5151435;27;45252;-71
2024/01/19 00:07:25;;;;;;;2.53;1.88;;;17.60;38.70;;;;;;5151546;27;45472;-70
2024/01/19 00:09:52;;;;;;;2.63;1.67;;;17.60;38.70;;;;;;5148771;27;45450;-70
2024/01/19 00:12:19;;;;;;;1.95;1.73;;;17.60;38.80;;;;;;5151800;27;45323;-70
2024/01/19 00:14:46;;;;;;;2.55;2.08;;;17.50;38.70;;;;;;5149142;27;45515;-71
2024/01/19 00:17:13;;;;;;;4.85;2.08;;;17.50;39.40;;;;;;5151364;27;47296;-71
2024/01/19 00:19:39;;;;;;;3.15;1.90;;;17.50;38.80;;;;;;5151469;27;45459;-70
2024/01/19 00:22:08;;;;;;;1.88;1.77;;;17.50;38.70;;;;;;5151580;27;45237;-71
2024/01/19 00:24:34;;;;;;;1.77;1.65;;;17.50;38.70;;;;;;5149072;27;45348;-70
2024/01/19 00:27:02;;;;;;;2.67;1.83;;;17.50;38.70;;;;;;5151412;27;45192;-70
2024/01/19 00:29:30;;;;;;;2.88;2.00;;;17.50;38.70;;;;;;5151404;27;45273;-70
2024/01/19 00:31:57;;;;;;;2.30;1.85;;;17.50;38.70;;;;;;5151468;27;45317;-70
2024/01/19 00:34:24;;;;;;;2.42;2.10;;;17.50;39.30;;;;;;5151451;27;44785;-71
2024/01/19 00:36:51;;;;;;;2.50;1.80;;;17.50;38.70;;;;;;5150742;27;46672;-71
2024/01/19 00:39:19;;;;;;;2.35;1.60;;;17.40;38.60;;;;;;5150957;27;46055;-70
2024/01/19 00:41:46;;;;;;;2.38;1.95;;;17.40;38.70;;;;;;5151169;27;45380;-70
2024/01/19 00:44:13;;;;;;;2.53;1.67;;;17.40;38.60;;;;;;5151397;27;45385;-70
2024/01/19 00:46:40;;;;;;;2.40;1.67;;;17.40;38.60;;;;;;5150218;27;45291;-70
2024/01/19 00:49:07;;;;;;;2.42;1.83;;;17.40;38.60;;;;;;5150749;27;45251;-70
2024/01/19 00:51:34;;;;;;;2.20;1.85;;;17.40;38.60;;;;;;5151174;27;45285;-70
2024/01/19 00:54:01;;;;;;;2.78;2.10;;;17.40;39.20;;;;;;5151389;27;45415;-70
2024/01/19 00:56:29;;;;;;;2.22;1.70;;;17.40;38.60;;;;;;5150604;27;46613;-70
2024/01/19 00:58:56;;;;;;;3.88;2.00;;;17.40;38.60;;;;;;5150621;27;45174;-70
2024/01/19 01:01:23;;;;;;;2.47;2.00;;;17.40;38.60;;;;;;5150964;27;45259;-71
2024/01/19 01:03:50;;;;;;;2.25;1.92;;;17.40;38.60;;;;;;5151158;27;45291;-70
2024/01/19 01:06:17;;;;;;;2.38;1.70;;;17.40;38.60;;;;;;5150853;27;45458;-70
2024/01/19 01:08:44;;;;;;;2.88;2.00;;;17.40;38.50;;;;;;5150405;27;46235;-70
2024/01/19 01:11:11;;;;;;;2.05;1.85;;;17.40;38.50;;;;;;5150688;27;45382;-70
2024/01/19 01:13:39;;;;;;;1.90;1.80;;;17.40;38.50;;;;;;5150819;27;45254;-70
2024/01/19 01:16:06;;;;;;;2.35;2.00;;;17.30;38.40;;;;;;5150452;27;46306;-70
2024/01/19 01:18:33;;;;;;;5.95;2.45;;;17.30;38.40;;;;;;5150302;27;45386;-70
2024/01/19 01:21:00;;;;;;;2.85;1.90;;;17.30;38.50;;;;;;5150702;27;45431;-70
2024/01/19 01:23:26;;;;;;;3.15;2.15;;;17.30;38.50;;;;;;5150981;27;45175;-70
2024/01/19 01:25:53;;;;;;;2.53;2.10;;;17.30;38.50;;;;;;5150323;27;45246;-70
2024/01/19 01:28:20;;;;;;;2.50;1.70;;;17.30;38.40;;;;;;5150178;27;45241;-69
2024/01/19 01:30:49;;;;;;;3.25;2.20;;;17.30;38.40;;;;;;5149968;27;45349;-70
2024/01/19 01:33:15;;;;;;;2.13;1.90;;;17.30;38.40;;;;;;5150586;27;45308;-70
2024/01/19 01:35:42;;;;;;;3.20;2.25;;;17.30;39.00;;;;;;5150049;27;46299;-70
2024/01/19 01:38:09;;;;;;;2.65;2.00;;;17.20;38.40;;;;;;5150161;27;45304;-70
2024/01/19 01:40:36;;;;;;;1.85;1.75;;;17.20;38.40;;;;;;5150047;27;45293;-69
2024/01/19 01:43:04;;;;;;;2.33;2.13;;;17.20;38.40;;;;;;5150236;27;45418;-70
2024/01/19 01:45:31;;;;;;;1.95;1.80;;;17.20;38.40;;;;;;5149881;27;45413;-70
2024/01/19 01:48:00;;;;;;;3.75;2.03;;;17.20;38.40;;;;;;5149358;27;45305;-70
2024/01/19 01:50:26;;;;;;;3.97;2.05;;;17.20;38.30;;;;;;5150165;27;45356;-70
2024/01/19 01:52:53;;;;;;;3.03;1.88;;;17.20;38.30;;;;;;5150171;27;45307;-70
2024/01/19 01:55:20;;;;;;;2.58;1.80;;;17.20;38.30;;;;;;5149862;27;47345;-70
2024/01/19 01:57:47;;;;;;;2.63;2.25;;;17.20;38.30;;;;;;5149833;27;45321;-70
2024/01/19 02:00:14;;;;;;;3.88;2.28;;;17.20;38.30;;;;;;5149918;27;45319;-70
2024/01/19 02:02:41;;;;;;;3.53;2.17;;;17.10;38.20;;;;;;5150042;27;45485;-70
2024/01/19 02:05:10;;;;;;;3.13;2.35;;;17.10;38.20;;;;;;5149963;27;45372;-70
2024/01/19 02:07:37;;;;;;;2.30;2.10;;;17.10;38.20;;;;;;5150006;27;45295;-70
2024/01/19 02:10:04;;;;;;;3.42;2.17;;;17.10;38.20;;;;;;5149776;27;45122;-70
2024/01/19 02:12:31;;;;;;;1.70;1.60;;;17.10;38.20;;;;;;5149955;27;45183;-70
2024/01/19 02:14:58;;;;;;;4.10;2.00;;;17.10;38.20;;;;;;5149164;27;46450;-70
2024/01/19 02:17:26;;;;;;;2.00;1.55;;;17.10;38.20;;;;;;5149716;27;45382;-70
2024/01/19 02:19:53;;;;;;;2.28;1.90;;;17.10;38.10;;;;;;5150038;27;45317;-70
2024/01/19 02:22:22;;;;;;;2.70;2.20;;;17.00;38.10;;;;;;5150356;27;45210;-71
2024/01/19 02:24:50;;;;;;;2.33;2.03;;;17.00;38.10;;;;;;5149555;27;45407;-71
2024/01/19 02:27:17;;;;;;;2.13;1.70;;;17.00;38.10;;;;;;5149792;27;45317;-70
2024/01/19 02:29:49;;;;;;;2.83;1.95;;;17.00;38.10;;;;;;5149785;27;45297;-70
2024/01/19 02:32:16;;;;;;;2.08;1.80;;;17.00;38.10;;;;;;5149973;27;45400;-71
2024/01/19 02:34:45;;;;;;;3.83;2.00;;;17.00;38.10;;;;;;5149192;27;46658;-70
2024/01/19 02:37:12;;;;;;;3.08;2.10;;;17.00;38.10;;;;;;5149137;27;45273;-70
2024/01/19 02:39:40;;;;;;;2.78;2.03;;;17.00;38.00;;;;;;5149385;27;45326;-70
2024/01/19 02:42:08;;;;;;;2.25;1.95;;;17.00;38.10;;;;;;5149586;27;45408;-70
2024/01/19 02:44:35;;;;;;;2.72;2.20;;;17.00;38.10;;;;;;5149539;27;47470;-71
2024/01/19 02:47:02;;;;;;;2.67;2.13;;;16.90;38.10;;;;;;5149445;27;45150;-71
2024/01/19 02:49:29;;;;;;;2.72;1.98;;;16.90;38.10;;;;;;5149219;27;45347;-71
2024/01/19 02:51:56;;;;;;;3.42;2.65;;;16.90;38.10;;;;;;5149295;27;45435;-71
2024/01/19 02:54:23;;;;;;;2.92;2.30;;;16.90;38.00;;;;;;5148871;27;46340;-71
2024/01/19 02:56:50;;;;;;;2.50;2.30;;;16.90;38.00;;;;;;5146035;27;45276;-71
2024/01/19 02:59:18;;;;;;;3.00;2.03;;;16.90;38.00;;;;;;5147673;27;45212;-71
2024/01/19 03:01:45;;;;;;;2.03;1.80;;;16.90;38.00;;;;;;5148250;27;45388;-71
2024/01/19 03:04:12;;;;;;;2.25;2.00;;;16.90;38.00;;;;;;5148604;27;45378;-71
2024/01/19 03:06:38;;;;;;;4.05;2.05;;;16.90;38.00;;;;;;5148898;27;45278;-71
2024/01/19 03:09:05;;;;;;;3.53;2.15;;;16.90;37.90;;;;;;5148762;27;45416;-71
2024/01/19 03:11:32;;;;;;;2.22;1.98;;;16.80;38.00;;;;;;5149041;27;45319;-71
2024/01/19 03:13:59;;;;;;;5.82;3.03;;;16.80;37.90;;;;;;5148643;27;46401;-71
2024/01/19 03:16:27;;;;;;;3.40;2.17;;;16.80;37.90;;;;;;5148980;27;45536;-71
2024/01/19 03:18:55;;;;;;;2.35;1.80;;;16.80;37.80;;;;;;5148974;27;45254;-71
2024/01/19 03:21:22;;;;;;;2.63;1.80;;;16.80;37.80;;;;;;5149150;27;45251;-73
2024/01/19 03:23:49;;;;;;;2.15;1.77;;;16.80;37.80;;;;;;5148795;27;46821;-71
2024/01/19 03:26:16;;;;;;;3.33;2.20;;;16.80;37.80;;;;;;5148767;27;45382;-71
2024/01/19 03:28:42;;;;;;;4.22;2.05;;;16.80;37.80;;;;;;5149579;27;45253;-71
2024/01/19 03:31:09;;;;;;;2.88;1.88;;;16.80;37.90;;;;;;5149688;27;45453;-71
2024/01/19 03:33:37;;;;;;;2.10;1.60;;;16.80;38.50;;;;;;5149453;27;47321;-71
2024/01/19 03:36:05;;;;;;;1.80;1.70;;;16.80;37.90;;;;;;5149062;27;45367;-71
2024/01/19 03:38:31;;;;;;;2.63;2.05;;;16.80;37.80;;;;;;5148617;27;45456;-71
2024/01/19 03:41:00;;;;;;;2.35;1.92;;;16.80;37.80;;;;;;5148557;27;45336;-70
2024/01/19 03:43:26;;;;;;;2.53;1.75;;;16.80;37.80;;;;;;5147765;27;45481;-71
2024/01/19 03:45:53;;;;;;;2.15;1.70;;;16.80;37.80;;;;;;5148289;27;45379;-71
2024/01/19 03:48:20;;;;;;;3.13;1.88;;;16.80;37.80;;;;;;5148552;27;45385;-71
2024/01/19 03:50:48;;;;;;;2.83;1.65;;;16.70;37.70;;;;;;5148527;27;45410;-71
2024/01/19 03:53:15;;;;;;;2.08;1.77;;;16.70;37.70;;;;;;5148281;27;47214;-71
2024/01/19 03:55:42;;;;;;;2.08;1.83;;;16.70;37.70;;;;;;5148113;27;45362;-70
2024/01/19 03:58:09;;;;;;;2.08;1.85;;;16.70;37.70;;;;;;5148234;27;45499;-70
2024/01/19 04:00:35;;;;;;;2.70;1.70;;;16.70;37.70;;;;;;5148402;27;45315;-70
2024/01/19 04:03:02;;;;;;;3.20;2.00;;;16.70;37.70;;;;;;5148317;27;45250;-71
2024/01/19 04:05:29;;;;;;;1.83;1.70;;;16.70;37.70;;;;;;5148215;27;45255;-71
2024/01/19 04:07:57;;;;;;;1.90;1.70;;;16.70;37.70;;;;;;5148177;27;45218;-71
2024/01/19 04:10:25;;;;;;;2.08;1.92;;;16.60;37.70;;;;;;5148581;27;45300;-71
2024/01/19 04:12:52;;;;;;;2.60;1.90;;;16.60;37.70;;;;;;5150584;27;46288;-71
2024/01/19 04:15:19;;;;;;;2.20;1.63;;;16.60;37.70;;;;;;5151437;27;45200;-71
2024/01/19 04:17:46;;;;;;;2.40;1.75;;;16.60;37.80;;;;;;5151554;27;45172;-70
2024/01/19 04:20:12;;;;;;;3.65;1.88;;;16.70;37.80;;;;;;5151498;27;45355;-71
2024/01/19 04:22:39;;;;;;;2.45;2.00;;;16.70;38.40;;;;;;5151512;27;46349;-71
2024/01/19 04:25:08;;;;;;;3.00;1.95;;;16.60;37.70;;;;;;5152168;27;45371;-71
2024/01/19 04:27:35;;;;;;;2.97;1.88;;;16.60;37.70;;;;;;5151263;27;45164;-71
2024/01/19 04:30:02;;;;;;;2.65;2.10;;;16.60;37.70;;;;;;5152383;27;45374;-71
2024/01/19 04:32:29;;;;;;;2.67;2.13;;;16.60;37.70;;;;;;5151642;27;45504;-71
2024/01/19 04:34:56;;;;;;;2.40;2.20;;;16.60;37.70;;;;;;5151880;27;45307;-71
2024/01/19 04:37:22;;;;;;;2.28;1.80;;;16.50;37.70;;;;;;5151787;27;45375;-70
2024/01/19 04:39:49;;;;;;;1.85;1.60;;;16.60;37.70;;;;;;5151342;27;45471;-71
2024/01/19 04:42:17;;;;;;;2.78;1.77;;;16.50;37.60;;;;;;5156001;27;45261;-71
2024/01/19 04:44:44;;;;;;;3.53;2.33;;;16.60;37.70;;;;;;5160709;27;45459;-71
2024/01/19 04:47:11;;;;;;;3.92;1.85;;;16.60;37.70;;;;;;5163057;27;45136;-71
2024/01/19 04:49:38;;;;;;;4.32;2.10;;;16.60;37.60;;;;;;5157226;27;45345;-69
2024/01/19 04:52:05;;;;;;;1.83;1.70;;;16.60;37.70;;;;;;5151774;27;45344;-70
2024/01/19 04:54:32;;;;;;;2.65;2.38;;;16.50;37.60;;;;;;5151122;27;45245;-71
2024/01/19 04:56:58;;;;;;;2.67;1.65;;;16.50;37.60;;;;;;5151086;27;45441;-71
2024/01/19 04:59:27;;;;;;;2.88;2.25;;;16.50;37.60;;;;;;5150981;27;45389;-71
2024/01/19 05:01:54;;;;;;;3.03;2.20;;;16.50;37.60;;;;;;5150933;27;46726;-71
2024/01/19 05:04:22;;;;;;;2.72;1.92;;;16.50;37.60;;;;;;5150787;27;45282;-70
2024/01/19 05:06:49;;;;;;;4.28;2.05;;;16.50;37.60;;;;;;5150664;27;45327;-71
2024/01/19 05:09:16;;;;;;;3.00;2.03;;;16.50;37.60;;;;;;5150284;27;45480;-71
2024/01/19 05:11:42;;;;;;;2.63;1.95;;;16.50;37.60;;;;;;5150796;27;45288;-71
2024/01/19 05:14:10;;;;;;;2.65;2.40;;;16.50;37.60;;;;;;5160196;27;44612;-74
2024/01/19 05:16:38;;;;;;;3.20;2.47;;;16.40;37.50;;;;;;5164396;27;45167;-71
2024/01/19 05:19:05;;;;;;;18.15;2.67;;;16.40;37.60;;;;;;5151025;27;45384;-70
2024/01/19 05:21:32;;;;;;;2.30;2.10;;;16.40;37.50;;;;;;5150645;27;46481;-70
2024/01/19 05:23:58;;;;;;;6.40;2.33;;;16.40;37.50;;;;;;5149541;27;45260;-70
2024/01/19 05:26:26;;;;;;;5.90;2.53;;;16.50;37.60;;;;;;5150553;27;45301;-71
2024/01/19 05:28:53;;;;;;;3.83;2.42;;;16.50;37.50;;;;;;5151319;27;45423;-70
2024/01/19 05:31:19;;;;;;;3.00;2.15;;;16.40;37.50;;;;;;5150196;27;46439;-70
2024/01/19 05:33:48;;;;;;;4.55;2.33;;;16.40;37.50;;;;;;5151429;27;45304;-70
2024/01/19 05:36:15;;;;;;;2.58;2.35;;;16.40;37.50;;;;;;5156275;27;45332;-72
2024/01/19 05:38:42;;;;;;;2.83;1.92;;;16.40;37.50;;;;;;5158398;27;45254;-72
2024/01/19 05:41:09;;;;;;;3.55;2.08;;;16.40;37.50;;;;;;5153592;27;46213;-71
2024/01/19 05:43:36;;;;;;;2.95;1.88;;;16.40;37.50;;;;;;5154499;27;45428;-71
2024/01/19 05:46:03;;;;;;;2.78;2.05;;;16.50;37.50;;;;;;5150957;27;45293;-71
2024/01/19 05:48:30;;;;;;;2.38;1.67;;;16.50;37.50;;;;;;5150807;27;45259;-70
2024/01/19 05:50:58;;;;;;;2.00;1.63;;;16.40;37.40;;;;;;5150290;27;46396;-70
2024/01/19 05:53:25;;;;;;;2.40;1.88;;;16.40;37.40;;;;;;5150085;27;45364;-70
2024/01/19 05:55:52;;;;;;;5.28;2.58;;;16.40;37.50;;;;;;5150684;27;45375;-70
2024/01/19 05:58:19;;;;;;;4.22;2.30;;;16.40;37.50;;;;;;5150626;27;45297;-71
2024/01/19 06:00:46;;;;;;;3.13;2.38;;;16.40;37.50;;;;;;5149418;27;45297;-70
2024/01/19 06:03:12;;;;;;;2.45;2.10;;;16.40;37.60;;;;;;5150029;27;45507;-70
2024/01/19 06:05:39;;;;;;;2.10;1.90;;;16.40;37.60;;;;;;5149821;27;45442;-70
2024/01/19 06:08:07;;;;;;;3.08;2.30;;;16.40;37.50;;;;;;5149950;27;45312;-70
2024/01/19 06:10:34;;;;;;;2.28;1.83;;;16.40;37.50;;;;;;5149497;27;45337;-71
2024/01/19 06:13:01;;;;;;;2.78;1.90;;;16.50;37.50;;;;;;5149477;27;45245;-70
2024/01/19 06:15:28;;;;;;;2.67;1.92;;;16.50;37.30;;;;;;5149813;27;45393;-70
2024/01/19 06:17:55;;;;;;;3.47;2.03;;;16.60;37.20;;;;;;5150021;27;45306;-70
2024/01/19 06:20:22;;;;;;;2.30;1.58;;;16.70;37.10;;;;;;5149075;27;46369;-70
2024/01/19 06:22:48;;;;;;;4.43;2.15;;;16.80;37.00;;;;;;5149284;27;45259;-70
2024/01/19 06:25:17;;;;;;;2.40;2.03;;;16.90;36.90;;;;;;5149491;27;44811;-70
2024/01/19 06:27:44;;;;;;;3.60;2.00;;;17.00;37.40;;;;;;5147419;27;45301;-70
2024/01/19 06:30:12;;;;;;;2.72;1.98;;;17.00;36.60;;;;;;5149077;27;45303;-71
2024/01/19 06:32:39;;;;;;;2.05;1.90;;;17.10;36.50;;;;;;5148847;27;45204;-70
2024/01/19 06:35:07;;;;;;;3.60;1.90;;;17.20;36.40;;;;;;5149115;27;45295;-70
2024/01/19 06:37:34;;;;;;;2.40;2.17;;;17.30;36.30;;;;;;5149691;27;45298;-71
2024/01/19 06:40:01;;;;;;;1.80;1.70;;;17.40;36.20;;;;;;5149201;27;47308;-70
2024/01/19 06:42:30;;;;;;;3.10;1.77;;;17.50;36.00;;;;;;5149325;27;45489;-70
2024/01/19 06:44:57;;;;;;;4.10;1.85;;;17.50;35.90;;;;;;5149522;27;45272;-70
2024/01/19 06:47:24;;;;;;;2.50;1.92;;;17.60;35.80;;;;;;5149507;27;45306;-70
2024/01/19 06:49:51;;;;;;;3.03;1.98;;;17.70;35.70;;;;;;5148984;27;47976;-70
2024/01/19 06:52:19;;;;;;;2.00;1.75;;;17.70;35.60;;;;;;5149414;27;45320;-70
2024/01/19 06:54:45;;;;;;;2.75;2.20;;;17.80;35.50;;;;;;5149048;27;45260;-70
2024/01/19 06:57:12;;;;;;;2.03;1.80;;;17.80;35.40;;;;;;5149541;27;45265;-70
2024/01/19 06:59:41;;;;;;;4.15;2.30;;;17.90;35.40;;;;;;5148853;27;46322;-70
2024/01/19 07:02:07;;;;;;;2.65;2.30;;;17.90;35.30;;;;;;5148857;27;45339;-70
2024/01/19 07:04:34;;;;;;;2.30;2.10;;;17.90;35.30;;;;;;5148993;27;45248;-70
2024/01/19 07:07:01;;;;;;;2.15;1.80;;;18.00;35.30;;;;;;5148825;27;45293;-70
2024/01/19 07:09:29;;;;;;;3.05;2.35;;;18.00;35.10;;;;;;5148461;27;46905;-71
2024/01/19 07:11:55;;;;;;;4.72;2.13;;;18.00;35.00;;;;;;5148232;27;45382;-71
2024/01/19 07:14:24;;;;;;;3.03;2.33;;;18.10;35.10;;;;;;5149112;27;45589;-71
2024/01/19 07:16:53;;;;;;;4.15;2.40;;;18.20;35.10;;;;;;5148362;27;45320;-70
2024/01/19 07:19:19;;;;;;;4.07;2.30;;;18.20;35.00;;;;;;5147839;27;46458;-71
2024/01/19 07:21:46;;;;;;;3.25;2.33;;;18.20;35.00;;;;;;5148519;27;45326;-70
2024/01/19 07:24:13;;;;;;;5.20;2.80;;;18.30;35.00;;;;;;5148753;27;45412;-71
2024/01/19 07:26:40;;;;;;;2.53;2.25;;;18.30;35.00;;;;;;5148860;27;45259;-71
2024/01/19 07:29:08;;;;;;;2.33;1.90;;;18.30;34.90;;;;;;5147254;27;46273;-71
2024/01/19 07:31:35;;;;;;;4.82;2.30;;;18.30;34.90;;;;;;5148259;27;45407;-71
2024/01/19 07:34:04;;;;;;;4.93;2.60;;;18.30;34.90;;;;;;5148441;27;45404;-71
2024/01/19 07:36:30;;;;;;;3.03;2.30;;;18.30;34.80;;;;;;5148810;27;45354;-70
2024/01/19 07:38:57;;;;;;;3.28;2.58;;;18.40;34.80;;;;;;5148114;27;46367;-71
2024/01/19 07:41:24;;;;;;;3.55;2.25;;;18.40;34.70;;;;;;5147881;27;45376;-70
2024/01/19 07:43:51;;;;;;;2.67;1.92;;;18.50;34.70;;;;;;5148745;27;45491;-71
2024/01/19 07:46:18;;;;;;;4.03;2.30;;;18.50;34.70;;;;;;5149210;27;45415;-70
2024/01/19 07:48:45;;;;;;;2.92;2.17;;;18.50;34.60;;;;;;5151485;27;45487;-70
2024/01/19 07:51:13;;;;;;;3.58;2.28;;;18.50;34.50;;;;;;5151143;27;45420;-73
2024/01/19 07:53:40;;;;;;;2.63;2.03;;;18.60;34.60;;;;;;5151726;27;45498;-70
2024/01/19 07:56:07;;;;;;;4.82;2.47;;;18.60;34.50;;;;;;5150989;27;45478;-70
2024/01/19 07:58:34;;;;;;;4.75;2.60;;;18.60;34.50;;;;;;5151085;27;45303;-70
2024/01/19 08:01:01;;;;;;;3.53;2.17;;;18.60;34.50;;;;;;5150313;27;45429;-69
2024/01/19 08:03:27;;;;;;;5.90;2.30;;;18.60;34.50;;;;;;5150912;27;45540;-70
2024/01/19 08:05:54;;;;;;;3.47;2.15;;;18.60;34.40;;;;;;5151373;27;45361;-70
2024/01/19 08:08:22;;;;;;;5.72;2.55;;;18.60;34.60;;;;;;5151419;27;46359;-71
2024/01/19 08:10:49;;;;;;;3.83;2.67;;;18.60;34.50;;;;;;5151392;27;45361;-70
2024/01/19 08:13:19;;;;;;;2.63;2.20;;;18.60;34.50;;;;;;5151371;27;45384;-70
2024/01/19 08:15:46;;;;;;;10.15;2.60;;;18.60;34.60;;;;;;5150949;27;45228;-70
2024/01/19 08:18:13;;;;;;;3.00;2.30;;;18.60;34.80;;;;;;5148140;27;45723;-69
2024/01/19 08:20:40;;;;;;;3.58;2.50;;;18.60;34.80;;;;;;5149481;27;45320;-70
2024/01/19 08:23:06;;;;;;;4.45;2.30;;;18.50;34.90;;;;;;5151529;27;45305;-70
2024/01/19 08:25:37;;;;;;;3.25;2.30;;;18.40;34.90;;;;;;5151632;27;45365;-70
2024/01/19 08:28:04;;;;;;;3.35;2.20;;;18.40;35.00;;;;;;5151110;27;48407;-69
2024/01/19 08:30:31;;;;;;;2.85;1.92;;;18.40;35.10;;;;;;5151169;27;45290;-69
2024/01/19 08:33:01;;;;;;;2.55;2.10;;;18.30;35.10;;;;;;5151354;27;45331;-69
2024/01/19 08:35:27;;;;;;;2.65;2.20;;;18.30;35.30;;;;;;5151490;27;45312;-69
2024/01/19 08:37:54;;;;;;;2.38;2.17;;;18.30;35.40;;;;;;5151050;27;45495;-69
2024/01/19 08:40:21;;;;;;;3.63;2.25;;;18.20;35.40;;;;;;5150859;27;45243;-69
2024/01/19 08:42:49;;;;;;;4.63;3.25;;;18.20;35.50;;;;;;5150990;27;45273;-69
2024/01/19 08:45:16;;;;;;;2.85;2.30;;;18.20;35.50;;;;;;5150787;27;45340;-69
2024/01/19 08:47:43;;;;;;;3.67;2.35;;;18.10;35.60;;;;;;5149051;27;48405;-69
2024/01/19 08:50:10;;;;;;;2.95;2.28;;;18.10;35.60;;;;;;5149820;27;45422;-69
2024/01/19 08:52:37;;;;;;;3.75;2.60;;;18.10;35.70;;;;;;5150676;27;45330;-70
2024/01/19 08:55:04;;;;;;;3.70;2.47;;;18.00;35.70;;;;;;5150786;27;45362;-69
2024/01/19 08:57:32;;;;;;;3.17;2.58;;;18.00;35.80;;;;;;5148759;27;45425;-69
2024/01/19 09:00:00;;;;;;;2.80;2.60;;;18.00;35.80;;;;;;5149703;27;45511;-68
2024/01/19 09:02:26;;;;;;;3.60;2.60;;;17.90;35.70;;;;;;5148795;27;45324;-68
2024/01/19 09:04:53;;;;;;;4.65;2.80;;;17.90;35.70;;;;;;5150381;27;45490;-68
2024/01/19 09:07:20;;;;;;;9.23;2.97;;;18.00;35.70;;;;;;5150325;27;45698;-68
2024/01/19 09:09:47;;;;;;;3.53;2.63;;;18.00;35.70;;;;;;5149980;27;45323;-67
2024/01/19 09:12:14;;;;;;;3.47;2.50;;;18.00;35.70;;;;;;5149991;27;45334;-67
2024/01/19 09:14:41;;;;;;;4.85;2.67;;;18.00;35.70;;;;;;5149792;27;45415;-67
2024/01/19 09:17:09;;;;;;;2.97;2.40;;;18.00;35.70;;;;;;5149654;27;45407;-67
2024/01/19 09:19:36;;;;;;;3.45;2.63;;;18.00;35.70;;;;;;5150289;27;45380;-67
2024/01/19 09:22:03;;;;;;;3.05;2.60;;;18.00;35.70;;;;;;5149966;27;45344;-68
2024/01/19 09:24:30;;;;;;;3.10;2.65;;;18.10;35.70;;;;;;5149182;27;45530;-67
2024/01/19 09:26:57;;;;;;;4.57;2.65;;;18.10;35.70;;;;;;5149163;27;47554;-67
2024/01/19 09:29:23;;;;;;;3.38;2.55;;;18.20;36.20;;;;;;5148916;27;45508;-67
2024/01/19 09:31:50;;;;;;;4.53;2.50;;;18.20;35.50;;;;;;5149265;27;45478;-67
2024/01/19 09:34:18;;;;;;;7.18;2.70;;;18.20;35.50;;;;;;5149763;27;45409;-67
2024/01/19 09:36:45;;;;;;;2.95;2.55;;;18.30;35.50;;;;;;5148886;27;46326;-67
2024/01/19 09:39:12;;;;;;;3.78;2.50;;;18.30;35.40;;;;;;5149155;27;45378;-67
2024/01/19 09:41:39;;;;;;;2.58;2.38;;;18.30;35.40;;;;;;5148545;27;45252;-68
2024/01/19 09:44:08;;;;;;;5.63;2.78;;;18.40;35.30;;;;;;5149740;27;45418;-68
2024/01/19 09:46:38;;;;;;;3.92;2.25;;;18.40;35.20;;;;;;5149542;27;46362;-68
2024/01/19 09:49:09;;;;;;;2.38;2.15;;;18.40;35.20;;;;;;5148947;27;45536;-68
2024/01/19 09:51:41;;;;;;;8.90;3.00;;;18.40;35.20;;;;;;5149283;27;45541;-68
2024/01/19 09:54:09;;;;;;;7.93;3.40;;;18.40;35.00;;;;;;5149926;27;45279;-67
2024/01/19 09:56:36;;;;;;;4.90;2.90;;;18.40;35.10;;;;;;5148249;27;45471;-68
2024/01/19 09:59:04;;;;;;;3.58;2.78;;;18.30;35.20;;;;;;5148031;27;45327;-67
2024/01/19 10:01:31;;;;;;;4.93;2.80;;;18.30;35.30;;;;;;5148691;27;45502;-68
2024/01/19 10:03:59;;;;;;;3.13;2.75;;;18.30;35.40;;;;;;5148593;27;45409;-66
2024/01/19 10:06:26;;;;;;;5.90;3.70;;;18.30;35.40;;;;;;5148552;27;45316;-66
2024/01/19 10:08:56;;;;;;;5.88;3.63;;;18.20;34.00;;;;;;5147249;27;45439;-66
2024/01/19 10:11:23;;;;;;;6.55;4.05;;;18.10;33.70;;;;;;5149113;27;45401;-66
2024/01/19 10:13:49;;;;;;;5.03;3.33;;;18.00;33.60;;;;;;5149194;27;45513;-67
2024/01/19 10:16:16;;;;;;;4.90;3.33;;;18.00;34.20;;;;;;5148023;27;46979;-65
2024/01/19 10:18:43;;;;;;;3.92;3.53;;;18.00;34.50;;;;;;5148048;27;45322;-66
2024/01/19 10:21:13;;;;;;;4.70;3.25;;;18.00;34.60;;;;;;5149066;27;45620;-65
2024/01/19 10:23:41;;;;;;;6.00;3.13;;;18.00;34.80;;;;;;5148717;27;45407;-66
2024/01/19 10:26:16;;;;;;;3.72;3.40;;;18.10;34.90;;;;;;5148159;27;46714;-65
2024/01/19 10:28:42;;;;;;;4.82;2.90;;;18.10;34.90;;;;;;5145347;27;45261;-67
2024/01/19 10:31:22;;;;;;;4.95;2.90;;;18.20;34.90;;;;;;5148350;27;45524;-67
2024/01/19 10:33:52;;;;;;;4.45;3.05;;;18.20;34.90;;;;;;5148348;27;45396;-67
2024/01/19 10:36:19;;;;;;;5.20;2.80;;;18.30;34.80;;;;;;5147530;27;45321;-65
2024/01/19 10:38:46;;;;;;;6.13;2.92;;;18.30;34.80;;;;;;5147920;27;45372;-66
2024/01/19 10:41:17;;;;;;;4.55;3.22;;;18.40;34.70;;;;;;5148170;27;45420;-65
2024/01/19 10:43:44;;;;;;;7.30;2.95;;;18.40;34.70;;;;;;5148694;27;45386;-66
2024/01/19 10:46:19;;;;;;;4.18;2.85;;;18.50;34.60;;;;;;5148058;27;45439;-65
2024/01/19 10:48:49;;;;;;;6.43;2.90;;;18.60;34.60;;;;;;5147028;27;45394;-66
2024/01/19 10:51:17;;;;;;;4.53;2.45;;;18.60;34.50;;;;;;5145187;27;45447;-66
2024/01/19 10:53:44;;;;;;;4.47;2.83;;;18.70;34.40;;;;;;5159757;27;45374;-67
2024/01/19 10:56:19;;;;;;;4.95;3.13;;;18.70;34.30;;;;;;5161309;27;46379;-68
2024/01/19 10:58:46;;;;;;;4.13;2.97;;;18.80;34.30;;;;;;5148272;27;45377;-67
2024/01/19 11:01:14;;;;;;;4.85;3.15;;;18.90;34.30;;;;;;5148659;27;45454;-67
2024/01/19 11:03:41;;;;;;;6.68;3.00;;;18.90;34.10;;;;;;5148809;27;45406;-67
2024/01/19 11:06:07;;;;;;;5.68;2.58;;;19.00;34.10;;;;;;5148520;27;45715;-67
2024/01/19 11:08:34;;;;;;;7.20;2.72;;;19.10;34.00;;;;;;5148579;27;45258;-67
2024/01/19 11:11:01;;;;;;;4.15;2.67;;;19.10;34.00;;;;;;5148597;27;45384;-66
2024/01/19 11:13:29;;;;;;;4.72;2.95;;;19.10;34.00;;;;;;5148224;27;45381;-66
2024/01/19 11:15:57;;;;;;;5.78;3.17;;;19.10;33.90;;;;;;5148044;27;45317;-66
2024/01/19 11:18:27;;;;;;;8.30;2.75;;;19.20;34.00;;;;;;5148036;27;45281;-66
2024/01/19 11:20:54;;;;;;;4.53;2.70;;;19.10;34.00;;;;;;5146958;27;45282;-67
2024/01/19 11:23:20;;;;;;;5.25;2.55;;;19.20;34.00;;;;;;5148631;27;45461;-65
2024/01/19 11:26:01;;;;;;;6.80;2.83;;;19.20;34.10;;;;;;5145248;27;45293;-66
2024/01/19 11:28:34;;;;;;;7.88;3.03;;;19.20;34.10;;;;;;5147997;27;45219;-67
2024/01/19 11:31:13;;;;;;;3.95;2.70;;;19.10;34.40;;;;;;5145274;27;45363;-68
2024/01/19 11:33:45;;;;;;;4.75;2.47;;;19.00;34.70;;;;;;5148529;27;45494;-66
2024/01/19 11:36:12;;;;;;;5.22;2.90;;;18.90;35.00;;;;;;5147748;27;46649;-67
2024/01/19 11:38:42;;;;;;;13.48;7.75;;;19.00;35.10;;;;;;5147560;27;45421;-66
2024/01/19 11:41:10;;;;;;;11.75;4.53;;;19.00;35.00;;;;;;5147489;27;45433;-66
2024/01/19 11:43:41;;;;;;;11.20;4.28;;;19.10;34.80;;;;;;5147514;27;45430;-66
2024/01/19 11:46:07;;;;;;;7.72;4.72;;;19.20;34.70;;;;;;5147317;27;45393;-66
2024/01/19 11:48:44;;;;;;;7.05;3.80;;;19.30;34.70;;;;;;5147249;27;45329;-65
2024/01/19 11:51:31;;;;;;;10.73;4.22;;;19.30;34.60;;;;;;5147659;27;45336;-66
2024/01/19 11:53:58;;;;;;;10.68;4.18;;;19.40;34.60;;;;;;5147788;27;45340;-66
2024/01/19 11:56:25;;;;;;;6.63;3.33;;;19.40;34.60;;;;;;5147453;27;47645;-68
2024/01/19 11:58:54;;;;;;;10.10;3.90;;;19.40;34.70;;;;;;5147658;27;45389;-67
2024/01/19 12:01:21;;;;;;;6.50;3.65;;;19.50;34.80;;;;;;5146559;27;45402;-66
2024/01/19 12:03:52;;;;;;;8.15;3.35;;;19.50;34.60;;;;;;5146248;27;45368;-66
2024/01/19 12:06:19;;;;;;;10.57;3.65;;;19.50;34.50;;;;;;5145309;27;47322;-67
2024/01/19 12:08:58;;;;;;;12.10;3.40;;;19.60;34.50;;;;;;5147091;27;45287;-66
2024/01/19 12:11:25;;;;;;;8.60;3.35;;;19.60;34.40;;;;;;5145384;27;45460;-68
2024/01/19 12:13:53;;;;;;;8.73;3.13;;;19.60;34.40;;;;;;5147561;27;45305;-66
2024/01/19 12:16:21;;;;;;;8.88;3.17;;;19.60;34.60;;;;;;5147078;27;46770;-68
2024/01/19 12:18:47;;;;;;;4.50;2.95;;;19.60;34.50;;;;;;5146962;27;45390;-68
2024/01/19 12:21:14;;;;;;;6.80;3.25;;;19.50;34.80;;;;;;5146406;27;45433;-67
2024/01/19 12:23:42;;;;;;;9.90;2.95;;;19.40;34.90;;;;;;5146932;27;45389;-67
2024/01/19 12:26:10;;;;;;;9.73;3.25;;;19.30;35.10;;;;;;5144483;27;47677;-67
2024/01/19 12:28:37;;;;;;;4.38;2.55;;;19.30;35.10;;;;;;5145485;27;45440;-67
2024/01/19 12:31:05;;;;;;;7.53;3.15;;;19.30;35.40;;;;;;5146697;27;45255;-67
2024/01/19 12:33:35;;;;;;;4.97;2.95;;;19.30;35.40;;;;;;5148970;27;45338;-67
2024/01/19 12:36:07;;;;;;;4.47;2.60;;;19.50;35.10;;;;;;5150236;27;46445;-67
2024/01/19 12:38:34;;;;;;;7.13;2.60;;;19.70;34.90;;;;;;5150207;27;45283;-66
2024/01/19 12:41:03;;;;;;;6.80;2.53;;;19.90;34.70;;;;;;5149798;27;45317;-66
2024/01/19 12:43:31;;;;;;;3.83;2.30;;;20.10;34.40;;;;;;5150493;27;45312;-67
2024/01/19 12:46:06;;;;;;;6.75;2.78;;;20.30;34.20;;;;;;5150480;27;47888;-67